createdAt,value
2023-01-20T00:00:49.904Z,84.96
2023-01-20T00:01:49.793Z,84.35
2023-01-20T00:02:49.794Z,84.10
2023-01-20T00:03:49.733Z,83.75
2023-01-20T00:04:49.683Z,83.85
2023-01-20T00:05:49.613Z,85.83
2023-01-20T00:55:50.096Z,25.00
2023-01-20T00:56:50.876Z,25.00
2023-01-20T00:57:50.853Z,25.00
2023-01-20T00:58:50.828Z,25.00
2023-01-20T00:59:50.807Z,25.00
2023-01-20T01:00:50.891Z,25.00
2023-01-20T01:01:50.981Z,4.58
2023-01-20T01:02:50.766Z,0.00
2023-01-20T01:03:50.781Z,0.00
2023-01-20T01:04:50.742Z,0.00
2023-01-20T01:05:50.728Z,8.99
2023-01-20T01:06:50.708Z,21.39
2023-01-20T01:07:50.687Z,26.18
2023-01-20T01:08:50.686Z,25.00
2023-01-20T01:09:50.664Z,25.36
2023-01-20T01:10:50.626Z,25.00
2023-01-20T01:11:50.621Z,25.00
2023-01-20T01:12:50.580Z,25.09
2023-01-20T01:13:50.638Z,26.49
2023-01-20T01:14:50.545Z,25.00
2023-01-20T01:15:50.583Z,25.00
2023-01-20T01:16:50.512Z,25.08
2023-01-20T01:17:50.507Z,25.00
2023-01-20T01:18:50.526Z,25.80
2023-01-20T01:19:50.484Z,25.00
2023-01-20T01:20:50.465Z,25.02
2023-01-20T01:21:50.466Z,25.84
2023-01-20T01:22:50.452Z,25.78
2023-01-20T01:23:50.473Z,25.84
2023-01-20T01:24:50.470Z,25.93
2023-01-20T01:25:50.440Z,26.72
2023-01-20T01:26:50.383Z,26.13
2023-01-20T01:27:50.450Z,25.01
2023-01-20T01:28:50.387Z,27.19
2023-01-20T01:29:50.341Z,26.01
2023-01-20T01:30:50.379Z,25.66
2023-01-20T01:31:50.318Z,25.00
2023-01-20T01:32:50.293Z,25.00
2023-01-20T01:33:50.383Z,25.00
2023-01-20T01:34:50.277Z,25.00
2023-01-20T01:35:50.270Z,26.78
2023-01-20T01:36:50.260Z,27.14
2023-01-20T01:37:50.239Z,25.93
2023-01-20T01:38:58.039Z,26.64
2023-01-20T01:39:50.212Z,26.91
2023-01-20T01:40:50.194Z,27.45
2023-01-20T01:41:50.180Z,26.63
2023-01-20T01:42:50.174Z,25.02
2023-01-20T01:43:50.190Z,26.60
2023-01-20T01:44:50.148Z,25.07
2023-01-20T01:45:50.231Z,26.41
2023-01-20T01:46:50.128Z,25.79
2023-01-20T01:47:50.124Z,26.69
2023-01-20T01:48:50.104Z,25.00
2023-01-20T01:49:50.079Z,26.41
2023-01-20T01:50:50.096Z,26.58
2023-01-20T01:51:50.054Z,25.59
2023-01-20T01:52:50.041Z,26.64
2023-01-20T01:53:50.027Z,26.28
2023-01-20T01:54:50.042Z,26.55
2023-01-20T01:55:50.039Z,26.55
2023-01-20T01:56:49.995Z,26.42
2023-01-20T01:57:49.980Z,26.68
2023-01-20T01:58:49.958Z,25.00
2023-01-20T01:59:49.968Z,28.36
2023-01-20T02:00:50.030Z,27.21
2023-01-20T02:01:50.095Z,25.37
2023-01-20T02:02:49.917Z,26.58
2023-01-20T02:03:49.902Z,25.34
2023-01-20T02:04:49.892Z,26.76
2023-01-20T02:05:49.964Z,28.87
2023-01-20T02:06:49.857Z,25.92
2023-01-20T02:07:49.856Z,25.78
2023-01-20T02:08:49.842Z,25.97
2023-01-20T02:09:49.829Z,26.99
2023-01-20T02:10:49.846Z,28.09
2023-01-20T02:11:49.800Z,26.85
2023-01-20T02:12:49.775Z,29.42
2023-01-20T02:13:49.761Z,27.75
2023-01-20T02:14:49.763Z,28.35
2023-01-20T02:15:49.801Z,27.20
2023-01-20T02:16:49.734Z,27.07
2023-01-20T02:17:49.711Z,25.00
2023-01-20T02:18:49.684Z,27.50
2023-01-20T02:19:49.674Z,25.80
2023-01-20T02:20:49.695Z,28.44
2023-01-20T02:21:49.678Z,28.46
2023-01-20T02:22:49.662Z,25.27
2023-01-20T02:23:49.648Z,26.52
2023-01-20T02:24:49.707Z,26.90
2023-01-20T02:25:49.647Z,28.14
2023-01-20T02:26:49.589Z,25.37
2023-01-20T02:27:49.564Z,27.33
2023-01-20T02:28:49.560Z,27.86
2023-01-20T02:29:49.557Z,25.61
2023-01-20T02:30:49.637Z,28.79
2023-01-20T02:31:49.579Z,28.00
2023-01-20T02:32:49.473Z,26.99
2023-01-20T02:33:49.469Z,27.15
2023-01-20T02:34:49.446Z,25.00
2023-01-20T02:35:49.425Z,27.77
2023-01-20T02:36:49.418Z,27.54
2023-01-20T02:37:49.423Z,25.85
2023-01-20T02:38:49.397Z,28.20
2023-01-20T02:39:49.416Z,29.57
2023-01-20T02:40:49.407Z,29.81
2023-01-20T02:41:49.362Z,29.44
2023-01-20T02:42:49.354Z,28.24
2023-01-20T02:43:49.331Z,27.85
2023-01-20T02:44:49.356Z,26.84
2023-01-20T02:45:49.368Z,28.85
2023-01-20T02:46:49.285Z,28.39
2023-01-20T02:47:51.802Z,29.27
2023-01-20T02:48:49.270Z,29.45
2023-01-20T02:49:49.259Z,29.25
2023-01-20T02:50:49.250Z,29.44
2023-01-20T02:51:49.239Z,29.32
2023-01-20T02:52:49.220Z,28.14
2023-01-20T02:53:49.204Z,28.15
2023-01-20T02:54:49.191Z,28.79
2023-01-20T02:55:49.197Z,28.43
2023-01-20T02:56:49.160Z,29.15
2023-01-20T02:57:49.141Z,29.12
2023-01-20T02:58:49.136Z,28.66
2023-01-20T02:59:49.121Z,29.82
2023-01-20T03:00:49.227Z,27.38
2023-01-20T03:01:49.240Z,29.88
2023-01-20T03:02:49.079Z,29.61
2023-01-20T03:03:49.174Z,30.55
2023-01-20T03:04:49.046Z,29.87
2023-01-20T03:05:49.106Z,28.37
2023-01-20T03:06:49.019Z,27.60
2023-01-20T03:07:49.013Z,29.69
2023-01-20T03:08:49.019Z,29.33
2023-01-20T03:09:49.002Z,29.60
2023-01-20T03:10:48.982Z,29.87
2023-01-20T03:11:48.970Z,29.85
2023-01-20T03:12:48.960Z,27.83
2023-01-20T03:13:48.973Z,30.64
2023-01-20T03:14:48.940Z,31.07
2023-01-20T03:15:48.943Z,30.50
2023-01-20T03:16:48.942Z,29.61
2023-01-20T03:17:48.901Z,30.71
2023-01-20T03:18:48.897Z,27.82
2023-01-20T03:19:48.914Z,30.55
2023-01-20T03:20:48.926Z,28.46
2023-01-20T03:21:48.875Z,31.03
2023-01-20T03:22:48.863Z,29.80
2023-01-20T03:23:48.861Z,30.84
2023-01-20T03:24:48.856Z,30.48
2023-01-20T03:25:48.878Z,30.19
2023-01-20T03:26:48.839Z,27.41
2023-01-20T03:27:48.864Z,30.24
2023-01-20T03:28:48.915Z,28.95
2023-01-20T03:29:48.822Z,30.26
2023-01-20T03:30:48.896Z,29.55
2023-01-20T03:31:48.852Z,28.84
2023-01-20T03:32:48.811Z,29.23
2023-01-20T03:33:48.773Z,30.56
2023-01-20T03:34:48.765Z,30.41
2023-01-20T03:35:48.779Z,29.56
2023-01-20T03:36:48.737Z,30.78
2023-01-20T03:37:48.792Z,30.26
2023-01-20T03:38:48.711Z,30.41
2023-01-20T03:39:48.696Z,29.77
2023-01-20T03:40:48.701Z,30.11
2023-01-20T03:41:48.681Z,29.34
2023-01-20T03:42:48.698Z,29.63
2023-01-20T03:43:48.672Z,31.79
2023-01-20T03:44:48.655Z,31.32
2023-01-20T03:45:48.679Z,29.68
2023-01-20T03:46:48.637Z,30.74
2023-01-20T03:47:48.628Z,30.66
2023-01-20T03:48:48.590Z,30.39
2023-01-20T03:49:48.583Z,29.47
2023-01-20T03:50:48.571Z,29.54
2023-01-20T03:51:48.584Z,29.59
2023-01-20T03:52:48.810Z,31.24
2023-01-20T03:53:48.542Z,30.43
2023-01-20T03:54:48.525Z,31.47
2023-01-20T03:55:48.513Z,31.02
2023-01-20T03:56:48.491Z,31.04
2023-01-20T03:57:48.478Z,28.80
2023-01-20T03:58:48.453Z,29.74
2023-01-20T03:59:48.434Z,30.38
2023-01-20T04:00:48.424Z,31.15
2023-01-20T04:01:48.545Z,30.25
2023-01-20T04:02:48.376Z,29.16
2023-01-20T04:03:48.374Z,29.87
2023-01-20T04:04:48.354Z,28.67
2023-01-20T04:05:48.359Z,29.52
2023-01-20T04:06:48.325Z,28.62
2023-01-20T04:07:48.322Z,31.58
2023-01-20T04:08:48.343Z,31.21
2023-01-20T04:09:48.257Z,30.59
2023-01-20T04:10:48.248Z,29.36
2023-01-20T04:11:48.237Z,30.13
2023-01-20T04:12:48.219Z,31.11
2023-01-20T04:13:48.208Z,31.20
2023-01-20T04:14:48.215Z,29.38
2023-01-20T04:15:48.185Z,29.51
2023-01-20T04:16:48.158Z,30.59
2023-01-20T04:17:48.135Z,29.43
2023-01-20T04:18:48.121Z,31.25
2023-01-20T04:19:48.105Z,31.81
2023-01-20T04:20:48.076Z,30.89
2023-01-20T04:21:48.060Z,29.53
2023-01-20T04:22:48.055Z,30.98
2023-01-20T04:23:48.093Z,30.08
2023-01-20T04:24:48.054Z,29.84
2023-01-20T04:25:48.012Z,30.62
2023-01-20T04:26:47.996Z,29.41
2023-01-20T04:27:48.037Z,28.97
2023-01-20T04:28:47.958Z,28.58
2023-01-20T04:29:47.978Z,30.57
2023-01-20T04:30:48.077Z,30.34
2023-01-20T04:31:47.993Z,29.86
2023-01-20T04:32:47.895Z,30.36
2023-01-20T04:33:47.882Z,28.81
2023-01-20T04:34:47.867Z,30.56
2023-01-20T04:35:47.848Z,30.64
2023-01-20T04:36:47.842Z,30.79
2023-01-20T04:37:47.825Z,31.35
2023-01-20T04:38:47.800Z,30.59
2023-01-20T04:39:47.803Z,30.64
2023-01-20T04:40:47.765Z,30.14
2023-01-20T04:41:47.760Z,32.16
2023-01-20T04:42:47.742Z,32.37
2023-01-20T04:43:47.732Z,31.12
2023-01-20T04:44:47.725Z,31.24
2023-01-20T04:45:47.699Z,31.35
2023-01-20T04:46:47.691Z,30.61
2023-01-20T04:47:47.779Z,30.40
2023-01-20T04:48:47.682Z,31.39
2023-01-20T04:49:47.683Z,29.76
2023-01-20T04:50:47.668Z,30.24
2023-01-20T04:51:47.648Z,32.39
2023-01-20T04:52:47.644Z,29.67
2023-01-20T04:53:47.666Z,30.50
2023-01-20T04:54:47.634Z,31.36
2023-01-20T04:55:47.658Z,29.98
2023-01-20T04:56:47.613Z,32.12
2023-01-20T04:57:47.609Z,31.44
2023-01-20T04:58:47.617Z,29.93
2023-01-20T04:59:47.587Z,30.98
2023-01-20T05:00:47.577Z,30.48
2023-01-20T05:01:47.709Z,31.35
2023-01-20T05:02:47.674Z,29.94
2023-01-20T05:03:47.545Z,31.84
2023-01-20T05:04:47.528Z,30.74
2023-01-20T05:05:47.521Z,30.00
2023-01-20T05:06:47.514Z,30.67
2023-01-20T05:07:47.529Z,31.40
2023-01-20T05:08:47.480Z,32.00
2023-01-20T05:09:47.453Z,32.18
2023-01-20T05:10:47.444Z,31.40
2023-01-20T05:11:47.463Z,30.59
2023-01-20T05:12:47.434Z,31.61
2023-01-20T05:13:47.417Z,31.80
2023-01-20T05:14:47.410Z,32.64
2023-01-20T05:15:47.389Z,32.43
2023-01-20T05:16:47.393Z,31.95
2023-01-20T05:17:47.365Z,31.84
2023-01-20T05:18:47.358Z,32.92
2023-01-20T05:19:47.338Z,32.62
2023-01-20T05:20:47.339Z,32.96
2023-01-20T05:21:47.313Z,32.80
2023-01-20T05:22:47.341Z,30.37
2023-01-20T05:23:47.287Z,32.73
2023-01-20T05:24:47.299Z,32.70
2023-01-20T05:25:47.256Z,32.24
2023-01-20T05:26:47.241Z,31.20
2023-01-20T05:27:47.267Z,31.49
2023-01-20T05:28:47.217Z,31.66
2023-01-20T05:29:47.241Z,31.43
2023-01-20T05:30:47.289Z,32.16
2023-01-20T05:31:47.180Z,33.51
2023-01-20T05:32:47.153Z,31.76
2023-01-20T05:33:47.150Z,32.75
2023-01-20T05:34:47.193Z,32.57
2023-01-20T05:35:47.142Z,32.16
2023-01-20T05:36:47.121Z,32.94
2023-01-20T05:37:47.102Z,32.95
2023-01-20T05:38:47.097Z,31.45
2023-01-20T05:39:47.095Z,32.57
2023-01-20T05:40:47.075Z,31.96
2023-01-20T05:41:47.074Z,32.44
2023-01-20T05:42:47.057Z,34.01
2023-01-20T05:43:47.107Z,33.54
2023-01-20T05:44:47.036Z,33.20
2023-01-20T05:45:47.025Z,32.91
2023-01-20T05:46:46.993Z,33.10
2023-01-20T05:47:46.987Z,33.73
2023-01-20T05:48:46.976Z,32.09
2023-01-20T05:49:46.990Z,33.50
2023-01-20T05:50:47.009Z,32.25
2023-01-20T05:51:46.940Z,32.44
2023-01-20T05:52:49.343Z,32.81
2023-01-20T05:53:46.961Z,32.99
2023-01-20T05:54:46.913Z,33.01
2023-01-20T05:55:46.896Z,33.46
2023-01-20T05:56:46.914Z,33.53
2023-01-20T05:57:46.872Z,35.15
2023-01-20T05:58:46.867Z,34.29
2023-01-20T05:59:46.889Z,32.95
2023-01-20T06:00:46.861Z,33.63
2023-01-20T06:01:46.905Z,31.32
2023-01-20T06:02:46.931Z,32.34
2023-01-20T06:03:46.908Z,32.91
2023-01-20T06:04:46.872Z,32.77
2023-01-20T06:05:46.844Z,31.51
2023-01-20T06:06:46.831Z,32.69
2023-01-20T06:07:46.872Z,31.97
2023-01-20T06:08:46.821Z,31.81
2023-01-20T06:09:46.817Z,33.22
2023-01-20T06:10:46.941Z,32.72
2023-01-20T06:11:46.800Z,35.72
2023-01-20T06:12:46.797Z,33.84
2023-01-20T06:13:46.812Z,33.99
2023-01-20T06:14:46.780Z,31.95
2023-01-20T06:15:46.822Z,32.78
2023-01-20T06:16:46.769Z,32.12
2023-01-20T06:17:46.755Z,32.61
2023-01-20T06:18:46.753Z,32.44
2023-01-20T06:19:46.801Z,33.43
2023-01-20T06:20:46.942Z,32.19
2023-01-20T06:21:46.999Z,32.84
2023-01-20T06:22:46.704Z,31.87
2023-01-20T06:23:46.943Z,33.88
2023-01-20T06:24:46.927Z,40.16
2023-01-20T06:25:46.690Z,43.89
2023-01-20T06:26:46.678Z,47.86
2023-01-20T06:27:46.677Z,61.32
2023-01-20T06:28:46.669Z,73.36
2023-01-20T06:29:46.922Z,84.94
2023-01-20T06:30:46.735Z,108.57
2023-01-20T06:31:46.758Z,114.72
2023-01-20T06:32:46.650Z,120.28
2023-01-20T06:33:46.640Z,124.14
2023-01-20T06:34:46.648Z,128.54
2023-01-20T06:35:46.613Z,134.71
2023-01-20T06:36:46.607Z,139.75
2023-01-20T06:37:46.612Z,145.74
2023-01-20T06:38:46.601Z,147.83
2023-01-20T06:39:46.931Z,149.23
2023-01-20T06:40:46.593Z,153.26
2023-01-20T06:41:46.597Z,153.59
2023-01-20T06:42:46.581Z,156.12
2023-01-20T06:43:46.577Z,157.39
2023-01-20T06:44:46.937Z,158.33
2023-01-20T06:45:46.579Z,160.53
2023-01-20T06:46:48.294Z,162.37
2023-01-20T06:47:46.592Z,167.62
2023-01-20T06:48:46.556Z,164.82
2023-01-20T06:49:46.966Z,164.36
2023-01-20T06:50:46.712Z,167.13
2023-01-20T06:51:46.646Z,161.49
2023-01-20T06:52:46.528Z,166.15
2023-01-20T06:53:46.520Z,168.33
2023-01-20T06:54:46.929Z,166.94
2023-01-20T06:55:47.951Z,168.68
2023-01-20T06:56:46.499Z,171.54
2023-01-20T06:57:46.497Z,169.09
2023-01-20T06:58:46.488Z,169.81
2023-01-20T06:59:46.954Z,170.70
2023-01-20T07:00:46.495Z,164.08
2023-01-20T07:01:46.633Z,145.64
2023-01-20T07:02:46.499Z,158.52
2023-01-20T07:03:46.481Z,134.89
2023-01-20T07:04:46.959Z,151.96
2023-01-20T07:05:46.438Z,161.90
2023-01-20T07:06:46.433Z,135.27
2023-01-20T07:07:46.447Z,138.35
2023-01-20T07:08:46.432Z,139.71
2023-01-20T07:09:46.505Z,135.46
2023-01-20T07:10:46.481Z,135.57
2023-01-20T07:11:46.448Z,122.92
2023-01-20T07:12:46.457Z,131.63
2023-01-20T07:13:46.426Z,138.67
2023-01-20T07:14:46.465Z,140.62
2023-01-20T07:15:46.438Z,131.85
2023-01-20T07:16:47.018Z,129.87
2023-01-20T07:17:46.431Z,131.94
2023-01-20T07:18:46.419Z,132.62
2023-01-20T07:19:46.495Z,137.99
2023-01-20T07:20:46.413Z,141.35
2023-01-20T07:21:46.414Z,143.69
2023-01-20T07:22:46.403Z,147.65
2023-01-20T07:23:46.405Z,151.02
2023-01-20T07:24:46.446Z,149.64
2023-01-20T07:25:46.373Z,153.47
2023-01-20T07:26:46.371Z,156.74
2023-01-20T07:27:46.333Z,157.74
2023-01-20T07:28:46.452Z,160.59
2023-01-20T07:29:46.443Z,162.24
2023-01-20T07:30:46.373Z,164.11
2023-01-20T07:31:46.432Z,168.39
2023-01-20T07:32:46.301Z,173.34
2023-01-20T07:33:46.305Z,173.31
2023-01-20T07:34:47.746Z,175.81
2023-01-20T07:35:46.297Z,176.03
2023-01-20T07:36:46.268Z,176.78
2023-01-20T07:37:46.252Z,177.03
2023-01-20T07:38:46.209Z,179.26
2023-01-20T07:39:46.448Z,182.90
2023-01-20T07:40:46.187Z,182.84
2023-01-20T07:41:47.165Z,190.93
2023-01-20T07:42:46.158Z,188.43
2023-01-20T07:43:46.976Z,192.07
2023-01-20T07:44:47.153Z,192.85
2023-01-20T07:45:46.390Z,197.98
2023-01-20T07:46:46.099Z,196.26
2023-01-20T07:47:46.070Z,200.02
2023-01-20T07:48:46.476Z,200.63
2023-01-20T07:49:46.043Z,203.00
2023-01-20T07:50:46.078Z,203.50
2023-01-20T07:51:46.022Z,203.55
2023-01-20T07:52:45.984Z,206.17
2023-01-20T07:53:45.977Z,209.86
2023-01-20T07:54:46.454Z,207.69
2023-01-20T07:55:45.955Z,214.36
2023-01-20T07:56:46.451Z,214.63
2023-01-20T07:57:45.876Z,216.46
2023-01-20T07:58:45.862Z,215.51
2023-01-20T07:59:45.837Z,219.59
2023-01-20T08:00:46.067Z,218.99
2023-01-20T08:01:45.906Z,220.00
2023-01-20T08:02:45.770Z,221.89
2023-01-20T08:03:45.735Z,225.20
2023-01-20T08:04:45.718Z,226.32
2023-01-20T08:05:45.957Z,224.38
2023-01-20T08:06:45.673Z,226.61
2023-01-20T08:07:45.676Z,225.03
2023-01-20T08:08:45.636Z,228.35
2023-01-20T08:09:45.611Z,230.85
2023-01-20T08:10:46.007Z,230.76
2023-01-20T08:11:46.567Z,235.12
2023-01-20T08:12:45.917Z,237.33
2023-01-20T08:13:45.517Z,238.11
2023-01-20T08:14:45.497Z,237.70
2023-01-20T08:15:45.535Z,240.39
2023-01-20T08:16:45.486Z,239.16
2023-01-20T08:17:45.415Z,239.81
2023-01-20T08:18:45.392Z,244.76
2023-01-20T08:19:45.361Z,247.80
2023-01-20T08:20:45.499Z,248.73
2023-01-20T08:21:45.336Z,246.69
2023-01-20T08:22:45.291Z,244.83
2023-01-20T08:23:45.496Z,243.90
2023-01-20T08:24:45.249Z,246.05
2023-01-20T08:25:45.242Z,249.24
2023-01-20T08:26:45.218Z,246.03
2023-01-20T08:27:45.192Z,246.75
2023-01-20T08:28:45.508Z,246.05
2023-01-20T08:29:45.203Z,246.13
2023-01-20T08:30:45.352Z,245.66
2023-01-20T08:31:45.314Z,248.05
2023-01-20T08:32:45.129Z,246.21
2023-01-20T08:33:45.466Z,243.26
2023-01-20T08:34:45.175Z,247.44
2023-01-20T08:35:48.518Z,250.00
2023-01-20T08:36:45.068Z,250.21
2023-01-20T08:37:45.095Z,246.04
2023-01-20T08:38:45.503Z,250.74
2023-01-20T08:39:45.095Z,251.49
2023-01-20T08:40:44.995Z,252.80
2023-01-20T08:41:45.470Z,246.57
2023-01-20T08:42:44.966Z,241.37
2023-01-20T08:43:44.967Z,245.40
2023-01-20T08:44:45.017Z,242.92
2023-01-20T08:45:45.019Z,247.33
2023-01-20T08:46:44.917Z,245.61
2023-01-20T08:47:44.916Z,246.93
2023-01-20T08:48:44.831Z,248.14
2023-01-20T08:49:44.990Z,244.92
2023-01-20T08:50:45.795Z,244.02
2023-01-20T08:51:44.873Z,248.16
2023-01-20T08:52:44.768Z,243.63
2023-01-20T08:53:45.013Z,237.67
2023-01-20T08:54:44.720Z,201.49
2023-01-20T08:55:44.755Z,162.05
2023-01-20T08:56:45.013Z,233.47
2023-01-20T08:57:44.980Z,247.65
2023-01-20T08:58:44.662Z,240.23
2023-01-20T08:59:44.658Z,231.75
2023-01-20T09:00:45.002Z,218.42
2023-01-20T09:01:45.056Z,219.77
2023-01-20T09:02:45.090Z,217.92
2023-01-20T09:03:58.919Z,217.10
2023-01-20T09:04:44.985Z,217.38
2023-01-20T09:05:44.569Z,217.87
2023-01-20T09:06:44.590Z,218.29
2023-01-20T09:07:44.561Z,220.51
2023-01-20T09:08:44.537Z,218.74
2023-01-20T09:09:44.575Z,220.76
2023-01-20T09:10:44.502Z,222.80
2023-01-20T09:11:44.625Z,223.42
2023-01-20T09:12:44.466Z,220.53
2023-01-20T09:13:44.444Z,221.75
2023-01-20T09:14:44.433Z,225.68
2023-01-20T09:15:44.514Z,226.78
2023-01-20T09:16:44.378Z,225.95
2023-01-20T09:17:44.442Z,225.75
2023-01-20T09:18:44.521Z,228.64
2023-01-20T09:19:44.331Z,226.70
2023-01-20T09:20:44.314Z,232.58
2023-01-20T09:21:44.287Z,229.39
2023-01-20T09:22:44.248Z,233.90
2023-01-20T09:23:44.263Z,239.12
2023-01-20T09:24:44.492Z,239.55
2023-01-20T09:25:44.152Z,240.59
2023-01-20T09:26:44.133Z,242.07
2023-01-20T09:27:44.122Z,243.03
2023-01-20T09:28:44.063Z,242.81
2023-01-20T09:29:44.488Z,244.45
2023-01-20T09:30:44.158Z,248.29
2023-01-20T09:31:44.619Z,247.84
2023-01-20T09:32:43.982Z,244.76
2023-01-20T09:33:43.929Z,244.50
2023-01-20T09:34:44.013Z,243.17
2023-01-20T09:35:43.890Z,249.33
2023-01-20T09:36:44.017Z,247.99
2023-01-20T09:37:43.822Z,247.98
2023-01-20T09:38:43.808Z,246.08
2023-01-20T09:39:43.793Z,245.51
2023-01-20T09:40:43.756Z,248.42
2023-01-20T09:41:43.749Z,249.65
2023-01-20T09:42:43.999Z,249.36
2023-01-20T09:43:44.557Z,247.29
2023-01-20T09:44:43.653Z,232.27
2023-01-20T09:45:43.619Z,232.66
2023-01-20T09:46:44.604Z,233.66
2023-01-20T09:47:43.585Z,237.98
2023-01-20T09:48:43.570Z,236.10
2023-01-20T09:49:44.002Z,235.46
2023-01-20T09:50:43.531Z,235.81
2023-01-20T09:51:43.492Z,241.86
2023-01-20T09:52:43.508Z,238.07
2023-01-20T09:53:43.452Z,241.59
2023-01-20T09:54:43.502Z,242.26
2023-01-20T09:55:44.360Z,242.87
2023-01-20T09:56:43.333Z,242.60
2023-01-20T09:57:43.313Z,246.12
2023-01-20T09:58:43.291Z,246.45
2023-01-20T09:59:43.529Z,248.38
2023-01-20T10:00:43.233Z,247.56
2023-01-20T10:01:43.230Z,250.00
2023-01-20T10:02:43.197Z,246.40
2023-01-20T10:03:43.182Z,248.08
2023-01-20T10:04:43.513Z,249.16
2023-01-20T10:05:43.201Z,244.31
2023-01-20T10:06:43.094Z,244.62
2023-01-20T10:07:43.536Z,249.51
2023-01-20T10:08:52.601Z,247.36
2023-01-20T10:09:44.049Z,247.71
2023-01-20T10:10:43.507Z,247.79
2023-01-20T10:11:43.074Z,249.07
2023-01-20T10:12:42.975Z,249.79
2023-01-20T10:13:42.944Z,250.46
2023-01-20T10:14:42.935Z,254.15
2023-01-20T10:15:43.070Z,245.92
2023-01-20T10:16:42.892Z,248.61
2023-01-20T10:17:42.873Z,247.91
2023-01-20T10:18:42.857Z,248.35
2023-01-20T10:19:43.071Z,246.96
2023-01-20T10:20:42.806Z,246.45
2023-01-20T10:21:42.773Z,248.63
2023-01-20T10:22:42.721Z,247.96
2023-01-20T10:23:43.029Z,248.46
2023-01-20T10:24:42.688Z,248.00
2023-01-20T10:25:42.653Z,248.07
2023-01-20T10:26:42.649Z,248.56
2023-01-20T10:27:42.587Z,249.84
2023-01-20T10:28:43.052Z,248.38
2023-01-20T10:29:42.546Z,246.06
2023-01-20T10:30:42.671Z,250.00
2023-01-20T10:31:42.556Z,248.27
2023-01-20T10:32:42.448Z,250.00
2023-01-20T10:33:42.636Z,243.66
2023-01-20T10:34:42.406Z,244.80
2023-01-20T10:35:42.366Z,247.94
2023-01-20T10:36:45.522Z,250.55
2023-01-20T10:37:42.309Z,250.68
2023-01-20T10:38:42.277Z,251.38
2023-01-20T10:39:42.519Z,254.90
2023-01-20T10:40:42.313Z,254.88
2023-01-20T10:41:42.194Z,254.82
2023-01-20T10:42:42.552Z,249.61
2023-01-20T10:43:42.539Z,225.33
2023-01-20T10:44:42.113Z,200.23
2023-01-20T10:45:42.101Z,239.97
2023-01-20T10:46:42.161Z,230.18
2023-01-20T10:47:42.574Z,219.15
2023-01-20T10:48:42.548Z,212.46
2023-01-20T10:49:42.012Z,214.64
2023-01-20T10:50:41.997Z,215.95
2023-01-20T10:51:41.972Z,211.78
2023-01-20T10:52:41.957Z,215.34
2023-01-20T10:53:41.932Z,213.48
2023-01-20T10:54:42.041Z,214.95
2023-01-20T10:55:41.887Z,217.01
2023-01-20T10:56:41.915Z,219.71
2023-01-20T10:57:41.853Z,219.87
2023-01-20T10:58:42.028Z,219.38
2023-01-20T10:59:42.024Z,222.44
2023-01-20T11:00:41.791Z,225.68
2023-01-20T11:01:41.784Z,226.66
2023-01-20T11:02:42.564Z,230.30
2023-01-20T11:03:41.749Z,229.72
2023-01-20T11:04:42.032Z,231.60
2023-01-20T11:05:41.677Z,233.75
2023-01-20T11:06:41.617Z,232.23
2023-01-20T11:07:41.600Z,236.47
2023-01-20T11:08:44.200Z,236.95
2023-01-20T11:09:42.083Z,237.21
2023-01-20T11:10:40.543Z,237.22
2023-01-20T11:11:41.506Z,237.74
2023-01-20T11:12:41.502Z,237.78
2023-01-20T11:13:41.544Z,238.94
2023-01-20T11:14:41.437Z,179.40
2023-01-20T11:15:41.413Z,164.98
2023-01-20T11:16:41.384Z,201.41
2023-01-20T11:17:41.363Z,225.42
2023-01-20T11:18:41.563Z,212.40
2023-01-20T11:19:41.386Z,190.57
2023-01-20T11:20:41.309Z,188.21
2023-01-20T11:21:41.287Z,185.97
2023-01-20T11:22:41.284Z,183.96
2023-01-20T11:23:41.234Z,183.57
2023-01-20T11:24:41.631Z,184.21
2023-01-20T11:25:41.201Z,191.04
2023-01-20T11:26:41.158Z,188.14
2023-01-20T11:27:41.145Z,39.90
2023-01-20T11:28:41.618Z,39.15
2023-01-20T11:29:41.151Z,85.71
2023-01-20T11:30:41.154Z,98.48
2023-01-20T11:31:41.271Z,86.26
2023-01-20T11:32:41.557Z,75.50
2023-01-20T11:33:42.177Z,83.17
2023-01-20T11:34:41.211Z,74.68
2023-01-20T11:35:41.241Z,77.47
2023-01-20T11:36:41.584Z,79.69
2023-01-20T11:37:41.566Z,75.27
2023-01-20T11:38:41.559Z,74.29
2023-01-20T11:39:41.217Z,74.83
2023-01-20T11:40:41.217Z,74.08
2023-01-20T11:41:41.212Z,76.20
2023-01-20T11:42:41.218Z,78.55
2023-01-20T11:43:41.636Z,81.07
2023-01-20T11:44:41.216Z,80.25
2023-01-20T11:45:41.203Z,81.00
2023-01-20T11:46:41.617Z,82.58
2023-01-20T11:47:41.194Z,77.61
2023-01-20T11:48:41.704Z,78.74
2023-01-20T11:49:41.214Z,76.13
2023-01-20T11:50:41.210Z,79.32
2023-01-20T11:51:41.274Z,80.72
2023-01-20T11:52:41.209Z,73.24
2023-01-20T11:53:41.150Z,76.20
2023-01-20T11:54:41.643Z,79.98
2023-01-20T11:55:41.151Z,80.71
2023-01-20T11:56:41.421Z,75.08
2023-01-20T11:57:41.116Z,75.23
2023-01-20T11:58:41.398Z,72.67
2023-01-20T11:59:41.580Z,70.08
2023-01-20T12:00:41.107Z,70.71
2023-01-20T12:01:41.218Z,74.29
2023-01-20T12:02:41.121Z,68.06
2023-01-20T12:03:41.089Z,68.64
2023-01-20T12:04:41.101Z,65.87
2023-01-20T12:05:41.591Z,64.99
2023-01-20T12:06:41.073Z,66.96
2023-01-20T12:07:41.091Z,64.87
2023-01-20T12:08:41.059Z,62.74
2023-01-20T12:09:41.068Z,63.37
2023-01-20T12:10:41.066Z,62.82
2023-01-20T12:11:41.226Z,59.89
2023-01-20T12:12:41.025Z,61.50
2023-01-20T12:13:41.034Z,60.17
2023-01-20T12:14:41.086Z,58.57
2023-01-20T12:15:41.073Z,54.67
2023-01-20T12:16:41.013Z,56.27
2023-01-20T12:17:40.939Z,58.65
2023-01-20T12:18:50.387Z,63.87
2023-01-20T12:19:41.119Z,63.97
2023-01-20T12:20:54.001Z,64.08
2023-01-20T12:21:40.943Z,64.20
2023-01-20T12:22:40.985Z,65.53
2023-01-20T12:23:41.959Z,67.63
2023-01-20T12:24:43.150Z,68.85
2023-01-20T12:25:40.922Z,73.22
2023-01-20T12:26:40.915Z,67.04
2023-01-20T12:27:40.914Z,68.41
2023-01-20T12:28:41.098Z,66.43
2023-01-20T12:29:40.899Z,64.50
2023-01-20T12:30:41.439Z,64.31
2023-01-20T12:31:40.911Z,63.20
2023-01-20T12:32:40.889Z,63.57
2023-01-20T12:33:40.861Z,60.63
2023-01-20T12:34:41.159Z,61.07
2023-01-20T12:35:41.016Z,59.16
2023-01-20T12:36:40.824Z,59.93
2023-01-20T12:37:40.853Z,62.44
2023-01-20T12:38:41.825Z,59.70
2023-01-20T12:39:41.172Z,59.98
2023-01-20T12:40:40.814Z,60.11
2023-01-20T12:41:40.814Z,58.48
2023-01-20T12:42:40.809Z,58.94
2023-01-20T12:43:41.803Z,55.58
2023-01-20T12:44:40.788Z,55.91
2023-01-20T12:45:41.163Z,56.49
2023-01-20T12:46:40.776Z,55.24
2023-01-20T12:47:40.797Z,55.88
2023-01-20T12:48:40.747Z,58.06
2023-01-20T12:49:40.765Z,57.51
2023-01-20T12:50:40.725Z,56.67
2023-01-20T12:51:41.064Z,54.95
2023-01-20T12:52:40.800Z,56.47
2023-01-20T12:53:40.703Z,57.74
2023-01-20T12:54:48.299Z,55.37
2023-01-20T12:55:41.172Z,55.57
2023-01-20T12:56:40.721Z,55.61
2023-01-20T12:57:40.679Z,55.64
2023-01-20T12:58:40.672Z,56.05
2023-01-20T12:59:40.669Z,56.22
2023-01-20T13:00:40.672Z,54.16
2023-01-20T13:01:40.660Z,54.45
2023-01-20T13:02:40.669Z,54.11
2023-01-20T13:03:40.664Z,53.99
2023-01-20T13:04:40.643Z,52.88
2023-01-20T13:05:40.632Z,51.36
2023-01-20T13:06:40.643Z,52.97
2023-01-20T13:07:40.624Z,52.17
2023-01-20T13:08:40.604Z,54.42
2023-01-20T13:09:41.068Z,54.98
2023-01-20T13:10:40.597Z,54.70
2023-01-20T13:11:40.609Z,51.28
2023-01-20T13:12:40.580Z,54.81
2023-01-20T13:13:55.932Z,52.39
2023-01-20T13:14:40.550Z,52.65
2023-01-20T13:15:40.636Z,53.21
2023-01-20T13:16:42.697Z,53.53
2023-01-20T13:17:40.508Z,52.58
2023-01-20T13:18:40.502Z,53.10
2023-01-20T13:19:41.299Z,53.29
2023-01-20T13:20:40.503Z,52.84
2023-01-20T13:21:40.467Z,55.02
2023-01-20T13:22:40.453Z,50.86
2023-01-20T13:23:40.446Z,52.65
2023-01-20T13:24:40.609Z,53.58
2023-01-20T13:25:40.434Z,50.49
2023-01-20T13:26:40.418Z,52.07
2023-01-20T13:27:40.434Z,51.98
2023-01-20T13:28:40.404Z,51.04
2023-01-20T13:29:40.457Z,49.90
2023-01-20T13:30:40.495Z,52.12
2023-01-20T13:31:40.506Z,53.26
2023-01-20T13:32:40.363Z,48.64